Time;durP1;ratioP1;P1;durP2;ratioP2;P2;SDS_P1;SDS_P2;PMS_P1;PMS_P2;Temp;Humidity;BMP_temperature;BMP_pressure;BME280_temperature;BME280_humidity;BME280_pressure;Samples;Min_cycle;Max_cycle;Signal;HPM_P1;HPM_P2
2021/07/07 00:01:30;;;;;;;1.75;1.00;;;;;;;;;;6181256;23;20176;-90
2021/07/07 00:04:35;;;;;;;1.27;0.85;;;;;;;;;;6180632;23;20175;-90
2021/07/07 00:07:40;;;;;;;3.90;0.90;;;;;;;;;;6179512;23;20191;-90
2021/07/07 00:10:48;;;;;;;4.13;0.93;;;;;;;;;;6168156;23;20168;-89
2021/07/07 00:13:53;;;;;;;1.13;0.93;;;;;;;;;;6151665;23;20184;-90
2021/07/07 00:16:59;;;;;;;1.15;0.70;;;;;;;;;;6150086;23;20165;-89
2021/07/07 00:20:05;;;;;;;1.52;0.88;;;;;;;;;;6150174;23;20175;-90
2021/07/07 00:23:11;;;;;;;1.75;0.80;;;;;;;;;;6150050;23;20473;-89
2021/07/07 00:26:20;;;;;;;1.50;0.82;;;;;;;;;;6150559;23;20191;-90
2021/07/07 00:29:25;;;;;;;2.03;0.75;;;;;;;;;;6150575;23;20220;-89
2021/07/07 00:32:31;;;;;;;2.72;0.70;;;;;;;;;;6151430;23;20173;-90
2021/07/07 00:35:36;;;;;;;1.95;0.90;;;;;;;;;;6150042;23;20172;-90
2021/07/07 00:38:41;;;;;;;3.33;0.90;;;;;;;;;;6150797;23;20192;-90
2021/07/07 00:41:46;;;;;;;2.72;0.88;;;;;;;;;;6150951;23;20171;-89
2021/07/07 00:44:51;;;;;;;1.20;0.80;;;;;;;;;;6151573;23;20172;-90
2021/07/07 00:47:58;;;;;;;1.10;0.80;;;;;;;;;;6149549;23;20226;-91
2021/07/07 00:51:04;;;;;;;1.67;0.82;;;;;;;;;;6149677;23;20289;-89
2021/07/07 00:54:10;;;;;;;4.78;1.00;;;;;;;;;;6149955;23;20169;-90
2021/07/07 00:57:16;;;;;;;1.50;0.90;;;;;;;;;;6147480;23;20165;-90
2021/07/07 01:00:22;;;;;;;1.85;0.80;;;;;;;;;;6149106;23;20176;-90
2021/07/07 01:03:30;;;;;;;2.25;0.70;;;;;;;;;;6150283;23;20284;-90
2021/07/07 01:06:35;;;;;;;0.82;0.80;;;;;;;;;;6149633;23;20169;-91
2021/07/07 01:09:40;;;;;;;2.45;0.90;;;;;;;;;;6169859;23;20191;-90
2021/07/07 01:12:45;;;;;;;1.33;0.77;;;;;;;;;;6179441;23;20179;-90
2021/07/07 01:15:51;;;;;;;2.25;0.70;;;;;;;;;;6179738;23;20171;-89
2021/07/07 01:18:58;;;;;;;1.02;0.68;;;;;;;;;;6179767;23;20312;-89
2021/07/07 01:22:05;;;;;;;1.50;0.90;;;;;;;;;;6179514;23;20618;-90
2021/07/07 01:25:11;;;;;;;1.80;1.02;;;;;;;;;;6179494;22;20167;-90
2021/07/07 01:28:18;;;;;;;1.65;0.70;;;;;;;;;;6180895;23;20251;-89
2021/07/07 01:31:23;;;;;;;1.85;0.90;;;;;;;;;;6179677;23;20175;-89
2021/07/07 01:34:28;;;;;;;2.50;0.75;;;;;;;;;;6180114;23;20164;-91
2021/07/07 01:37:34;;;;;;;1.48;0.80;;;;;;;;;;6180178;23;20195;-90
2021/07/07 01:40:39;;;;;;;1.67;0.75;;;;;;;;;;6179296;22;20688;-90
2021/07/07 01:43:44;;;;;;;1.15;0.80;;;;;;;;;;6178244;23;20252;-89
2021/07/07 01:46:50;;;;;;;1.63;0.90;;;;;;;;;;6177934;22;20183;-90
2021/07/07 01:49:55;;;;;;;2.17;0.70;;;;;;;;;;6179025;23;20184;-90
2021/07/07 01:53:05;;;;;;;1.20;0.70;;;;;;;;;;6177548;23;20168;-90
2021/07/07 01:56:10;;;;;;;4.30;0.70;;;;;;;;;;6179814;23;20175;-90
2021/07/07 01:59:23;;;;;;;1.98;0.88;;;;;;;;;;6178911;23;20567;-90
2021/07/07 02:02:28;;;;;;;1.17;0.75;;;;;;;;;;6197115;23;20179;-89
2021/07/07 02:05:35;;;;;;;2.20;0.88;;;;;;;;;;6180988;23;20171;-90
2021/07/07 02:08:42;;;;;;;3.10;0.80;;;;;;;;;;6179145;23;20191;-89
2021/07/07 02:11:48;;;;;;;0.98;0.82;;;;;;;;;;6179521;23;20163;-90
2021/07/07 02:14:52;;;;;;;5.35;0.82;;;;;;;;;;6179631;23;20175;-90
2021/07/07 02:18:02;;;;;;;1.27;0.85;;;;;;;;;;6185244;23;20239;-90
2021/07/07 02:21:16;;;;;;;1.15;0.80;;;;;;;;;;6187783;23;20284;-89
2021/07/07 02:24:23;;;;;;;0.93;0.70;;;;;;;;;;6176231;23;20223;-90
2021/07/07 02:27:27;;;;;;;1.23;0.70;;;;;;;;;;6177772;22;20611;-90
2021/07/07 02:30:35;;;;;;;1.77;0.80;;;;;;;;;;6180068;22;20307;-91
2021/07/07 02:33:41;;;;;;;1.48;0.75;;;;;;;;;;6178353;23;20620;-90
2021/07/07 02:36:46;;;;;;;1.58;0.80;;;;;;;;;;6179067;23;20246;-90
2021/07/07 02:40:06;;;;;;;3.55;0.70;;;;;;;;;;6177929;23;20234;-91
2021/07/07 02:43:13;;;;;;;2.35;0.82;;;;;;;;;;6179138;23;20659;-91
2021/07/07 02:46:18;;;;;;;1.60;1.00;;;;;;;;;;6178768;23;20503;-90
2021/07/07 02:49:25;;;;;;;2.58;0.95;;;;;;;;;;6181361;23;20151;-89
2021/07/07 02:52:30;;;;;;;4.00;0.95;;;;;;;;;;6181535;23;20175;-90
2021/07/07 02:55:36;;;;;;;1.42;1.00;;;;;;;;;;6180331;23;20175;-89
2021/07/07 02:58:42;;;;;;;1.80;0.80;;;;;;;;;;6180270;23;20655;-89
2021/07/07 03:01:47;;;;;;;2.05;0.90;;;;;;;;;;6179768;22;20164;-90
2021/07/07 03:04:52;;;;;;;2.65;1.10;;;;;;;;;;6178518;23;20171;-90
2021/07/07 03:07:57;;;;;;;5.13;0.98;;;;;;;;;;6179482;23;20215;-89
2021/07/07 03:11:03;;;;;;;1.65;0.80;;;;;;;;;;6178367;23;20206;-90
2021/07/07 03:14:09;;;;;;;6.47;1.00;;;;;;;;;;6179454;23;20171;-89
2021/07/07 03:17:15;;;;;;;2.75;1.00;;;;;;;;;;6179842;23;20162;-90
2021/07/07 03:20:20;;;;;;;1.27;0.90;;;;;;;;;;6178514;23;20222;-89
2021/07/07 03:23:28;;;;;;;3.15;0.93;;;;;;;;;;6180862;23;20164;-90
2021/07/07 03:26:33;;;;;;;1.40;1.00;;;;;;;;;;6179700;23;20167;-90
2021/07/07 03:29:40;;;;;;;4.20;0.98;;;;;;;;;;6180848;23;20167;-89
2021/07/07 03:32:45;;;;;;;1.63;0.80;;;;;;;;;;6180344;23;20168;-89
2021/07/07 03:35:50;;;;;;;2.25;1.00;;;;;;;;;;6181256;23;20225;-89
2021/07/07 03:38:56;;;;;;;2.00;1.10;;;;;;;;;;6180401;23;20203;-89
2021/07/07 03:42:01;;;;;;;3.42;1.05;;;;;;;;;;6185006;23;20172;-90
2021/07/07 03:45:09;;;;;;;1.92;1.00;;;;;;;;;;6181250;23;20176;-90
2021/07/07 03:48:14;;;;;;;3.75;1.08;;;;;;;;;;6181064;23;20168;-90
2021/07/07 03:51:20;;;;;;;2.95;1.00;;;;;;;;;;6181447;23;20164;-89
2021/07/07 03:54:24;;;;;;;2.50;1.00;;;;;;;;;;6181853;23;20179;-90
2021/07/07 03:57:30;;;;;;;1.27;1.02;;;;;;;;;;6180947;23;20225;-90
2021/07/07 04:01:01;;;;;;;1.63;0.90;;;;;;;;;;6180448;23;20172;-91
2021/07/07 04:04:08;;;;;;;3.28;1.00;;;;;;;;;;6181264;23;20175;-89
2021/07/07 04:07:16;;;;;;;1.60;0.95;;;;;;;;;;6181223;23;20246;-90
2021/07/07 04:10:49;;;;;;;1.27;0.82;;;;;;;;;;6171608;23;20200;-89
2021/07/07 04:13:57;;;;;;;2.10;0.90;;;;;;;;;;6169473;23;20223;-90
2021/07/07 04:17:01;;;;;;;11.43;1.17;;;;;;;;;;6168205;23;20172;-89
2021/07/07 04:20:09;;;;;;;1.98;0.85;;;;;;;;;;6166982;23;20187;-89
2021/07/07 04:23:16;;;;;;;2.20;1.08;;;;;;;;;;6168494;23;20242;-89
2021/07/07 04:26:21;;;;;;;3.80;1.20;;;;;;;;;;6168722;23;20224;-89
2021/07/07 04:29:26;;;;;;;4.50;1.05;;;;;;;;;;6167318;23;20168;-90
2021/07/07 04:32:31;;;;;;;2.10;1.10;;;;;;;;;;6168207;23;20180;-89
2021/07/07 04:35:39;;;;;;;2.88;1.10;;;;;;;;;;6167605;23;20172;-90
2021/07/07 05:02:53;;;;;;;3.25;1.10;;;;;;;;;;6143337;22;1288383;-88
2021/07/07 05:05:59;;;;;;;1.55;1.10;;;;;;;;;;6150630;23;20288;-88
2021/07/07 05:09:05;;;;;;;2.95;1.20;;;;;;;;;;6158941;23;20627;-89
2021/07/07 05:12:10;;;;;;;11.27;6.18;;;;;;;;;;6160771;23;20160;-88
2021/07/07 05:15:16;;;;;;;3.55;1.73;;;;;;;;;;6160672;23;20171;-88
2021/07/07 05:18:27;;;;;;;3.70;1.02;;;;;;;;;;6161168;23;20236;-88
2021/07/07 05:21:32;;;;;;;3.72;1.10;;;;;;;;;;6160278;23;20176;-89
2021/07/07 05:24:38;;;;;;;4.30;1.92;;;;;;;;;;6160135;23;20159;-89
2021/07/07 05:27:43;;;;;;;4.43;1.50;;;;;;;;;;6162956;23;20168;-88
2021/07/07 05:30:49;;;;;;;3.03;1.10;;;;;;;;;;6158244;23;20179;-89
2021/07/07 05:33:55;;;;;;;2.90;1.02;;;;;;;;;;6163878;23;20258;-90
2021/07/07 10:37:00;;;;;;;4.03;2.05;;;;;;;;;;6102900;23;20218;-90
2021/07/07 10:40:24;;;;;;;3.67;1.50;;;;;;;;;;6125958;23;20256;-89
2021/07/07 10:43:44;;;;;;;4.20;1.60;;;;;;;;;;6127297;23;20193;-90
2021/07/07 10:47:25;;;;;;;2.42;1.30;;;;;;;;;;6126535;23;20198;-90
2021/07/07 10:50:34;;;;;;;2.63;1.70;;;;;;;;;;6127297;23;20236;-91
2021/07/07 10:53:41;;;;;;;5.80;1.70;;;;;;;;;;6144534;23;20153;-90
2021/07/07 10:56:48;;;;;;;2.63;1.50;;;;;;;;;;6128473;23;20178;-91
2021/07/07 10:59:57;;;;;;;3.58;1.58;;;;;;;;;;6128146;23;20221;-91
2021/07/07 11:03:31;;;;;;;5.63;1.75;;;;;;;;;;6126501;23;20154;-89
2021/07/07 11:06:40;;;;;;;3.13;1.33;;;;;;;;;;6126113;23;20238;-90
2021/07/07 11:09:52;;;;;;;6.70;1.30;;;;;;;;;;6127265;23;20217;-91
2021/07/07 11:13:16;;;;;;;6.55;1.40;;;;;;;;;;6125237;23;20165;-89
2021/07/07 11:16:22;;;;;;;1.98;1.30;;;;;;;;;;6125967;23;20169;-90
2021/07/07 11:19:46;;;;;;;2.13;1.30;;;;;;;;;;6126647;23;20180;-90
2021/07/07 11:23:00;;;;;;;3.15;1.10;;;;;;;;;;6127064;23;20197;-91
2021/07/07 11:26:08;;;;;;;2.58;1.10;;;;;;;;;;6126526;23;20221;-90
2021/07/07 11:29:14;;;;;;;1.70;1.00;;;;;;;;;;6125485;23;20241;-88
2021/07/07 11:32:27;;;;;;;1.67;0.98;;;;;;;;;;6125498;23;20157;-91
2021/07/07 11:35:33;;;;;;;4.32;1.20;;;;;;;;;;6127263;23;20644;-90
2021/07/07 11:38:43;;;;;;;2.38;1.40;;;;;;;;;;6143769;23;20209;-90
2021/07/07 13:49:36;;;;;;;2.00;0.70;;;;;;;;;;6027765;22;4450557;-91
2021/07/07 13:52:42;;;;;;;0.82;0.60;;;;;;;;;;6203591;23;20158;-92
2021/07/07 13:55:47;;;;;;;6.82;0.70;;;;;;;;;;6206205;23;20162;-92
2021/07/07 13:58:52;;;;;;;0.70;0.63;;;;;;;;;;6203510;23;20167;-91
2021/07/07 14:01:58;;;;;;;5.40;0.80;;;;;;;;;;6203955;23;20159;-91
2021/07/07 14:05:08;;;;;;;1.33;0.90;;;;;;;;;;6205000;23;20170;-90
2021/07/07 14:11:36;;;;;;;4.32;0.60;;;;;;;;;;6201845;23;20240;-90
2021/07/07 14:14:41;;;;;;;2.88;0.70;;;;;;;;;;6202184;23;20227;-91
2021/07/07 14:17:46;;;;;;;1.10;0.90;;;;;;;;;;6201974;23;20205;-91
2021/07/07 14:21:07;;;;;;;2.85;0.57;;;;;;;;;;6203413;23;20180;-91
2021/07/07 17:14:23;;;;;;;6.63;1.50;;;;;;;;;;6176838;22;20570;-90
2021/07/07 17:17:31;;;;;;;3.33;1.42;;;;;;;;;;6232726;22;20207;-89
2021/07/07 17:20:37;;;;;;;4.90;1.38;;;;;;;;;;6250144;23;20214;-92
2021/07/07 17:23:45;;;;;;;3.25;1.20;;;;;;;;;;6251974;22;20198;-93
2021/07/07 17:26:52;;;;;;;5.22;1.60;;;;;;;;;;6233046;23;20286;-90
2021/07/07 17:29:59;;;;;;;4.03;1.20;;;;;;;;;;6232191;22;20175;-90
2021/07/07 17:33:05;;;;;;;2.78;1.52;;;;;;;;;;6231687;22;20171;-91
2021/07/07 17:36:10;;;;;;;7.90;1.73;;;;;;;;;;6231476;22;20482;-91
2021/07/07 17:39:15;;;;;;;6.00;1.67;;;;;;;;;;6232331;23;20195;-92
2021/07/07 17:42:21;;;;;;;6.32;1.67;;;;;;;;;;6230813;22;20163;-91
2021/07/07 17:45:28;;;;;;;2.53;1.58;;;;;;;;;;6231954;23;20514;-91
2021/07/07 17:48:33;;;;;;;4.15;1.40;;;;;;;;;;6230946;22;20626;-89
2021/07/07 17:51:40;;;;;;;6.53;1.67;;;;;;;;;;6228040;23;20171;-90
2021/07/07 17:54:45;;;;;;;2.85;1.50;;;;;;;;;;6230266;23;20232;-90
2021/07/07 17:57:53;;;;;;;3.17;1.70;;;;;;;;;;6228877;22;20283;-90
2021/07/07 18:01:03;;;;;;;4.95;1.80;;;;;;;;;;6231180;22;20186;-90
2021/07/07 18:04:12;;;;;;;6.40;1.70;;;;;;;;;;6232169;23;20174;-91
2021/07/07 18:07:21;;;;;;;4.40;1.55;;;;;;;;;;6236786;23;20248;-90
2021/07/07 18:10:29;;;;;;;6.07;2.25;;;;;;;;;;6230476;23;20159;-90
2021/07/07 18:13:35;;;;;;;4.72;1.88;;;;;;;;;;6231057;22;20191;-90
2021/07/07 19:11:47;;;;;;;3.35;1.30;;;;;;;;;;6199729;23;20204;-88
2021/07/07 19:15:35;;;;;;;3.83;1.60;;;;;;;;;;6200816;23;20163;-91
2021/07/07 19:18:40;;;;;;;7.57;1.98;;;;;;;;;;6200053;23;20168;-91
2021/07/07 19:21:45;;;;;;;4.40;1.90;;;;;;;;;;6202338;23;20236;-90
2021/07/07 19:24:52;;;;;;;5.78;2.20;;;;;;;;;;6201593;23;20198;-91
2021/07/07 19:27:59;;;;;;;3.63;1.70;;;;;;;;;;6201856;23;20211;-91
2021/07/07 19:31:06;;;;;;;5.25;1.75;;;;;;;;;;6200990;23;20606;-90
2021/07/07 19:34:18;;;;;;;6.10;1.83;;;;;;;;;;6201416;23;20171;-90
2021/07/07 19:37:23;;;;;;;4.35;1.88;;;;;;;;;;6201607;23;20163;-90
2021/07/07 19:40:29;;;;;;;4.80;1.88;;;;;;;;;;6201129;23;20171;-91
2021/07/07 19:43:36;;;;;;;5.70;2.08;;;;;;;;;;6202668;23;20195;-89
2021/07/07 19:46:41;;;;;;;2.63;1.50;;;;;;;;;;6201664;23;20170;-90
2021/07/07 19:49:47;;;;;;;6.15;1.50;;;;;;;;;;6184663;23;20239;-89
2021/07/07 19:52:52;;;;;;;2.85;1.80;;;;;;;;;;6202131;23;20238;-90
2021/07/07 19:55:58;;;;;;;5.10;1.80;;;;;;;;;;6200800;23;20196;-91
2021/07/07 19:59:05;;;;;;;3.92;1.60;;;;;;;;;;6200969;23;20376;-91
2021/07/07 20:05:33;;;;;;;9.50;2.05;;;;;;;;;;6204878;23;20215;-90
2021/07/07 20:08:39;;;;;;;6.80;1.90;;;;;;;;;;6208976;23;20155;-90
2021/07/07 20:11:44;;;;;;;7.28;1.77;;;;;;;;;;6206221;23;20162;-89
2021/07/07 20:14:53;;;;;;;4.43;1.58;;;;;;;;;;6206468;23;20216;-91
2021/07/07 20:21:24;;;;;;;3.95;1.90;;;;;;;;;;6211583;23;20195;-88
2021/07/07 22:00:33;;;;;;;93.55;51.13;;;;;;;;;;6189937;22;20219;-89
2021/07/07 22:03:39;;;;;;;4.18;1.90;;;;;;;;;;6233321;22;20167;-87
2021/07/07 22:06:46;;;;;;;4.43;1.70;;;;;;;;;;6251337;22;20154;-89
2021/07/07 22:09:51;;;;;;;3.33;1.88;;;;;;;;;;6235057;22;20230;-92
2021/07/07 22:12:56;;;;;;;5.97;1.30;;;;;;;;;;6237210;22;20226;-89
2021/07/07 22:54:10;;;;;;;21.70;14.88;;;;;;;;;;6184317;22;20676;-91
2021/07/07 22:57:15;;;;;;;6.35;1.80;;;;;;;;;;6231029;23;20242;-90
2021/07/07 23:00:20;;;;;;;2.40;1.65;;;;;;;;;;6229602;22;20190;-89
2021/07/07 23:03:26;;;;;;;5.13;1.58;;;;;;;;;;6230272;23;20171;-91
2021/07/07 23:06:31;;;;;;;2.92;1.52;;;;;;;;;;6231094;23;20167;-91
2021/07/07 23:09:38;;;;;;;2.60;1.60;;;;;;;;;;6230344;22;20162;-90
2021/07/07 23:12:43;;;;;;;11.63;4.32;;;;;;;;;;6231142;23;20154;-92
2021/07/07 23:15:49;;;;;;;4.05;1.70;;;;;;;;;;6229902;23;20626;-90
2021/07/07 23:18:59;;;;;;;5.32;1.58;;;;;;;;;;6230939;23;20198;-91
2021/07/07 23:22:04;;;;;;;3.95;1.92;;;;;;;;;;6232760;23;20171;-91
2021/07/07 23:25:13;;;;;;;4.18;1.88;;;;;;;;;;6229540;23;20242;-91
2021/07/07 23:28:18;;;;;;;7.45;1.70;;;;;;;;;;6231541;23;20510;-90
2021/07/07 23:31:23;;;;;;;2.90;1.52;;;;;;;;;;6229988;23;20283;-91
2021/07/07 23:34:29;;;;;;;4.10;1.30;;;;;;;;;;6229933;23;20274;-89
2021/07/07 23:37:34;;;;;;;4.97;1.83;;;;;;;;;;6230596;23;20175;-89
2021/07/07 23:40:41;;;;;;;5.18;1.85;;;;;;;;;;6229920;23;20167;-90
2021/07/07 23:43:46;;;;;;;2.53;1.50;;;;;;;;;;6232491;22;20214;-91
2021/07/07 23:46:51;;;;;;;4.57;1.63;;;;;;;;;;6232395;23;20195;-89
2021/07/07 23:49:57;;;;;;;3.25;1.48;;;;;;;;;;6230676;23;20171;-90
2021/07/07 23:53:03;;;;;;;8.90;1.80;;;;;;;;;;6231743;23;20190;-91
2021/07/07 23:56:09;;;;;;;7.03;1.85;;;;;;;;;;6233508;22;20198;-90
2021/07/07 23:59:14;;;;;;;3.67;1.52;;;;;;;;;;6231179;23;20245;-90
